Golconda, Nevada
Current Conditions -  °F | °C
As of 5:26 PM on Friday 28 Nov 2014 (Local Time) from KWMC Reporting Station
Haze Haze  
Wind Chill: 53°   Ceiling: Unl
Heat Index: 53°   Visibility: 2mi
Dew Point: -4°   Wind: 13mph
Humidity: 10%   Direction: 280°W
Pressure: 29.81"   Gusts: 21mph
Location:  40.95°N, 117.49°W
Report Text: KWMC 290126Z AUTO 28011G18KT 2SM HZ SCT021 12/M20 A2981 RMK AO2 T01171200
Loading
Personal Weather Stations






























Interactive Weather Map New forecast layout! Learn more

10-Day Weather Forecast

Advertisements
Track Severe Weather on mobile